This is the latest recevied weather packets stored in our database for station/object OK2ZA-6. If no packets are shown the sender has not sent any weather packets the latest 10 day(s).
| Time | Temp. | Humidity | Pressure | Rain* | Wind** | Luminosity | Snow |
|---|---|---|---|---|---|---|---|
| 1777999804 | 22.78° C | 42% | 1004.7 hPa | 0 mm | - | - | - |
| 1777999204 | 23.33° C | 41% | 1004.6 hPa | 0 mm | - | - | - |
| 1777998604 | 23.33° C | 41% | 1004.7 hPa | 0 mm | - | - | - |
| 1777998003 | 23.33° C | 40% | 1004.6 hPa | 0 mm | - | - | - |
| 1777997403 | 23.89° C | 38% | 1004.7 hPa | 0 mm | - | - | - |
| 1777996804 | 23.89° C | 34% | 1004.7 hPa | 0 mm | - | - | - |
| 1777996204 | 23.89° C | 33% | 1004.8 hPa | 0 mm | - | - | - |
| 1777995604 | 23.89° C | 32% | 1004.8 hPa | 0 mm | - | - | - |
| 1777995003 | 23.89° C | 31% | 1004.9 hPa | 0 mm | - | - | - |
| 1777994404 | 23.89° C | 32% | 1005.1 hPa | 0 mm | - | - | - |
| 1777993803 | 23.89° C | 33% | 1005.2 hPa | 0 mm | - | - | - |
| 1777993204 | 24.44° C | 32% | 1005.4 hPa | 0 mm | - | - | - |
| 1777992603 | 23.89° C | 32% | 1005.5 hPa | 0 mm | - | - | - |
| 1777992003 | 23.89° C | 33% | 1005.7 hPa | 0 mm | - | - | - |
| 1777991404 | 23.89° C | 33% | 1005.9 hPa | 0 mm | - | - | - |
| 1777990803 | 23.33° C | 34% | 1006 hPa | 0 mm | - | - | - |
| 1777989604 | 23.89° C | 36% | 1006.2 hPa | 0 mm | - | - | - |
| 1777989004 | 23.33° C | 36% | 1006.4 hPa | 0 mm | - | - | - |
| 1777988404 | 23.33° C | 37% | 1006.5 hPa | 0 mm | - | - | - |
| 1777987804 | 23.33° C | 39% | 1006.6 hPa | 0 mm | - | - | - |
| 1777987203 | 22.78° C | 42% | 1006.7 hPa | 0 mm | - | - | - |
| 1777986604 | 22.78° C | 44% | 1007 hPa | 0 mm | - | - | - |
| 1777986004 | 22.22° C | 46% | 1007.2 hPa | 0 mm | - | - | - |
| 1777985403 | 22.22° C | 44% | 1007.3 hPa | 0 mm | - | - | - |
| 1777984804 | 21.67° C | 45% | 1007.4 hPa | 0 mm | - | - | - |
* Rain latest hour (hover to see other rain measurements)
** Current wind speed in m/s (hover to see current wind gust speed)